Main page
METAR-TAF:

METAR-TAF

Airports :

Chengdu Shuangliu International Airport

Chengdu, China

latitude: 30-40N, longitude: 104-01E, elevation: 508 m

Current weather observation

The report was made 34 minutes ago, at 08:00 UTC
Wind 6 kt from variable directions
Temperature 16°C
Humidity 39%
Pressure 1028 hPa
Visibility 10 km or more
Scattered clouds at a height of 3000 ft

METAR: ZUUU 210800Z VRB03MPS 9999 SCT030 16/02 Q1028 NOSIG

Time: 16:34 (08:34 UTC)

Forecast

The report was made 6 hours and 32 minutes ago, at 02:02 UTC
Forecast valid from 21 at 06 UTC to 22 at 06 UTC
Wind 6 kt from the South/Southwest
Visibility: 5000 m
Scattered clouds at a height of 4000 ft
mist

TAF: ZUUU 210202Z 2106/2206 20003MPS 5000 BR SCT040 TX16/2107Z TN06/2123Z

Weather observations and forecasts of more than 4000 airports (METAR and TAF reports).

The available stations are represented by yellow and red dots on the map.

Hover mouse over dot to see the name of the station.

Then click to see weather observations and forecasts.

To change the map : click on the green buttons with a black cross to zoom in, on the green button with a dash to zoom out, or on the green arrows for adjacent maps.


METAR-TAF: